BAW2151 EGLL-TBPB
Flight info
| Callsign | BAW2151 |
|---|---|
| Flight time | 3h 56m |
| Altitude | 34000 |
| Route | GASGU N514 ADKIK DCT JOZMA DCT GAPLI/M077F340 DCT OMOKO DCT 43N020W/M077F360 DCT VMG DCT 34N030W 27N040W 20N050W/M077F380 DCT JTHON/N0451F380 DCT BGI |
| Aircraft | CONC/H-SDE2E3FGHIRYW/X |
Departure
| Time | 2026-05-06 22:15 |
|---|---|
| Airport | London Heathrow Airport (EGLL) |
Arrival
| Time | 2026-05-07 02:12 |
|---|---|
| Airport | Grantley Adams International Airport (TBPB) |
| Time | Latitude | Longitude | Altitude | Speed | Heading |
|---|---|---|---|---|---|
| 2026-05-06 22:15 | 51.39695 | -0.35857 | 6784 ft | 272 kts | 222° |
| 2026-05-06 22:15 | 51.38581 | -0.37288 | 7373 ft | 274 kts | 216° |
| 2026-05-06 22:15 | 51.36940 | -0.38919 | 8169 ft | 280 kts | 208° |
| 2026-05-06 22:15 | 51.35122 | -0.40089 | 8971 ft | 284 kts | 199° |
| 2026-05-06 22:16 | 51.33232 | -0.41068 | 9782 ft | 288 kts | 202° |
| 2026-05-06 22:16 | 51.31577 | -0.42819 | 10570 ft | 288 kts | 232° |
| 2026-05-06 22:16 | 51.30519 | -0.45523 | 11403 ft | 289 kts | 248° |
| 2026-05-06 22:16 | 51.29817 | -0.48549 | 12218 ft | 292 kts | 254° |
| 2026-05-06 22:17 | 51.29238 | -0.51663 | 13013 ft | 294 kts | 257° |
| 2026-05-06 22:17 | 51.28700 | -0.54846 | 13835 ft | 320 kts | 256° |
| 2026-05-06 22:17 | 51.28069 | -0.58299 | 14550 ft | 357 kts | 254° |
| 2026-05-06 22:17 | 51.27323 | -0.62103 | 15290 ft | 360 kts | 253° |
| 2026-05-06 22:18 | 51.26558 | -0.65949 | 16056 ft | 364 kts | 253° |
| 2026-05-06 22:18 | 51.25792 | -0.69836 | 16838 ft | 369 kts | 253° |
| 2026-05-06 22:18 | 51.25034 | -0.73722 | 17636 ft | 372 kts | 253° |
| 2026-05-06 22:18 | 51.24263 | -0.77680 | 18429 ft | 377 kts | 253° |
| 2026-05-06 22:19 | 51.23476 | -0.81711 | 19152 ft | 382 kts | 253° |
| 2026-05-06 22:19 | 51.22680 | -0.85767 | 19898 ft | 384 kts | 253° |
| 2026-05-06 22:19 | 51.21871 | -0.89854 | 20664 ft | 388 kts | 250° |
| 2026-05-06 22:19 | 51.20810 | -0.93802 | 21456 ft | 392 kts | 243° |
| 2026-05-06 22:20 | 51.19492 | -0.97675 | 22277 ft | 397 kts | 240° |
| 2026-05-06 22:20 | 51.18004 | -1.01407 | 23094 ft | 402 kts | 234° |
| 2026-05-06 22:20 | 51.16318 | -1.04994 | 23890 ft | 407 kts | 233° |
| 2026-05-06 22:20 | 51.14563 | -1.08589 | 24484 ft | 417 kts | 233° |
| 2026-05-06 22:21 | 51.12734 | -1.12306 | 24733 ft | 438 kts | 233° |
| 2026-05-06 22:21 | 51.10765 | -1.16323 | 24997 ft | 484 kts | 233° |
| 2026-05-06 22:21 | 51.08597 | -1.20750 | 25276 ft | 528 kts | 233° |
| 2026-05-06 22:21 | 51.06290 | -1.25449 | 26500 ft | 547 kts | 232° |
| 2026-05-06 22:22 | 51.03918 | -1.30273 | 28118 ft | 559 kts | 232° |
| 2026-05-06 22:22 | 51.01576 | -1.35216 | 29758 ft | 562 kts | 239° |
| 2026-05-06 22:22 | 50.99794 | -1.40779 | 30916 ft | 570 kts | 249° |
| 2026-05-06 22:22 | 50.98623 | -1.46836 | 31861 ft | 582 kts | 255° |
| 2026-05-06 22:23 | 50.97515 | -1.53132 | 32809 ft | 600 kts | 254° |
| 2026-05-06 22:23 | 50.96392 | -1.59636 | 33594 ft | 622 kts | 255° |
| 2026-05-06 22:23 | 50.95245 | -1.66366 | 34321 ft | 644 kts | 255° |
| 2026-05-06 22:23 | 50.94046 | -1.73348 | 35034 ft | 666 kts | 255° |
| 2026-05-06 22:24 | 50.92804 | -1.80532 | 35697 ft | 688 kts | 255° |
| 2026-05-06 22:24 | 50.91512 | -1.87964 | 36342 ft | 708 kts | 255° |
| 2026-05-06 22:24 | 50.90179 | -1.95597 | 36933 ft | 728 kts | 255° |
| 2026-05-06 22:24 | 50.88807 | -2.03424 | 37541 ft | 746 kts | 255° |
| 2026-05-06 22:25 | 50.87395 | -2.11432 | 38070 ft | 764 kts | 255° |
| 2026-05-06 22:25 | 50.85946 | -2.19624 | 38629 ft | 781 kts | 255° |
| 2026-05-06 22:25 | 50.84477 | -2.27886 | 39036 ft | 796 kts | 254° |
| 2026-05-06 22:25 | 50.82959 | -2.36379 | 39515 ft | 811 kts | 254° |
| 2026-05-06 22:26 | 50.81404 | -2.45047 | 40014 ft | 826 kts | 254° |
| 2026-05-06 22:26 | 50.79838 | -2.53856 | 40549 ft | 841 kts | 256° |
| 2026-05-06 22:26 | 50.78729 | -2.63024 | 41102 ft | 856 kts | 260° |
| 2026-05-06 22:26 | 50.77618 | -2.72357 | 41628 ft | 874 kts | 259° |
| 2026-05-06 22:27 | 50.76505 | -2.81882 | 42240 ft | 891 kts | 259° |
| 2026-05-06 22:27 | 50.75361 | -2.91612 | 42871 ft | 910 kts | 259° |
| 2026-05-06 22:27 | 50.74183 | -3.01540 | 43535 ft | 930 kts | 259° |
| 2026-05-06 22:27 | 50.72968 | -3.11696 | 44152 ft | 950 kts | 259° |
| 2026-05-06 22:28 | 50.71717 | -3.22069 | 44528 ft | 973 kts | 259° |
| 2026-05-06 22:28 | 50.70442 | -3.32550 | 44725 ft | 997 kts | 259° |
| 2026-05-06 22:28 | 50.69113 | -3.43399 | 44823 ft | 1016 kts | 259° |
| 2026-05-06 22:28 | 50.67782 | -3.54161 | 44866 ft | 982 kts | 259° |
| 2026-05-06 22:29 | 50.66482 | -3.64600 | 44889 ft | 962 kts | 259° |
| 2026-05-06 22:29 | 50.65188 | -3.74917 | 44925 ft | 960 kts | 259° |
| 2026-05-06 22:29 | 50.62551 | -3.95718 | 45241 ft | 979 kts | 258° |
| 2026-05-06 22:30 | 50.61097 | -4.06306 | 46084 ft | 995 kts | 258° |
| 2026-05-06 22:30 | 50.59635 | -4.17006 | 46882 ft | 998 kts | 258° |
| 2026-05-06 22:30 | 50.58172 | -4.27599 | 47688 ft | 980 kts | 258° |
| 2026-05-06 22:30 | 50.56722 | -4.38026 | 48493 ft | 974 kts | 258° |
| 2026-05-06 22:31 | 50.55265 | -4.48434 | 49283 ft | 976 kts | 257° |
| 2026-05-06 22:31 | 50.53813 | -4.58742 | 49680 ft | 982 kts | 257° |
| 2026-05-06 22:31 | 50.52316 | -4.69283 | 49880 ft | 990 kts | 257° |
| 2026-05-06 22:31 | 50.50799 | -4.79904 | 49926 ft | 999 kts | 257° |
| 2026-05-06 22:32 | 50.47697 | -5.01381 | 50084 ft | 1013 kts | 257° |
| 2026-05-06 22:32 | 50.46118 | -5.12213 | 50234 ft | 1021 kts | 257° |
| 2026-05-06 22:32 | 50.44510 | -5.23145 | 49799 ft | 1033 kts | 257° |
| 2026-05-06 22:33 | 50.42886 | -5.34120 | 50469 ft | 1033 kts | 257° |
| 2026-05-06 22:33 | 50.41250 | -5.45099 | 51291 ft | 1032 kts | 257° |
| 2026-05-06 22:33 | 50.39608 | -5.56035 | 52117 ft | 1031 kts | 257° |
| 2026-05-06 22:33 | 50.37983 | -5.66789 | 52936 ft | 1022 kts | 257° |
| 2026-05-06 22:34 | 50.36340 | -5.77591 | 53745 ft | 1017 kts | 257° |
| 2026-05-06 22:34 | 50.34690 | -5.88367 | 54581 ft | 1015 kts | 256° |
| 2026-05-06 22:34 | 50.33039 | -5.99070 | 55406 ft | 1012 kts | 256° |
| 2026-05-06 22:34 | 50.31378 | -6.09773 | 56236 ft | 1009 kts | 256° |
| 2026-05-06 22:35 | 50.29712 | -6.20431 | 57078 ft | 1005 kts | 256° |
| 2026-05-06 22:35 | 50.28045 | -6.31036 | 57614 ft | 1005 kts | 256° |
| 2026-05-06 22:35 | 50.26365 | -6.41647 | 57803 ft | 1007 kts | 256° |
| 2026-05-06 22:35 | 50.24671 | -6.52280 | 57885 ft | 1010 kts | 256° |
| 2026-05-06 22:36 | 50.21237 | -6.73628 | 57966 ft | 1017 kts | 256° |
| 2026-05-06 22:36 | 50.17754 | -6.95000 | 57955 ft | 1024 kts | 256° |
| 2026-05-06 22:37 | 50.14191 | -7.16593 | 57956 ft | 1031 kts | 256° |
| 2026-05-06 22:37 | 50.10566 | -7.38287 | 57954 ft | 1038 kts | 256° |
| 2026-05-06 22:38 | 50.06872 | -7.60107 | 57964 ft | 1044 kts | 255° |
| 2026-05-06 22:38 | 50.03113 | -7.82043 | 57961 ft | 1050 kts | 255° |
| 2026-05-06 22:39 | 49.99101 | -8.03911 | 58021 ft | 1055 kts | 248° |
| 2026-05-06 22:39 | 49.93356 | -8.24815 | 58020 ft | 1060 kts | 248° |
| 2026-05-06 22:40 | 49.87628 | -8.45935 | 57990 ft | 1065 kts | 248° |
| 2026-05-06 22:40 | 49.81842 | -8.67146 | 57977 ft | 1070 kts | 247° |
| 2026-05-06 22:41 | 49.73035 | -8.99046 | 57966 ft | 1077 kts | 247° |
| 2026-05-06 22:42 | 49.67083 | -9.20356 | 57968 ft | 1081 kts | 247° |
| 2026-05-06 22:42 | 49.61119 | -9.41520 | 57969 ft | 1085 kts | 247° |
| 2026-05-06 22:43 | 49.55049 | -9.62865 | 57975 ft | 1088 kts | 246° |
| 2026-05-06 22:43 | 49.48926 | -9.84208 | 57976 ft | 1092 kts | 246° |
| 2026-05-06 22:44 | 49.42741 | -10.05574 | 57976 ft | 1095 kts | 246° |
| 2026-05-06 22:44 | 49.36497 | -10.26957 | 57977 ft | 1098 kts | 246° |
| 2026-05-06 22:45 | 49.30199 | -10.48331 | 57979 ft | 1101 kts | 246° |
| 2026-05-06 22:45 | 49.23879 | -10.69595 | 57977 ft | 1104 kts | 246° |
| 2026-05-06 22:46 | 49.17469 | -10.90969 | 57971 ft | 1107 kts | 246° |
| 2026-05-06 22:46 | 49.11003 | -11.12348 | 57972 ft | 1110 kts | 245° |
| 2026-05-06 22:47 | 49.04488 | -11.33702 | 57979 ft | 1112 kts | 245° |
| 2026-05-06 22:47 | 48.97908 | -11.55080 | 57974 ft | 1114 kts | 245° |
| 2026-05-06 22:48 | 48.91285 | -11.76415 | 57977 ft | 1116 kts | 245° |
| 2026-05-06 22:48 | 48.84595 | -11.97728 | 57979 ft | 1118 kts | 243° |
| 2026-05-06 22:48 | 48.80707 | -12.07758 | 58095 ft | 1118 kts | 234° |
| 2026-05-06 22:49 | 48.75835 | -12.16936 | 58197 ft | 1118 kts | 226° |
| 2026-05-06 22:49 | 48.64594 | -12.33073 | 58066 ft | 1122 kts | 222° |
| 2026-05-06 22:50 | 48.53019 | -12.48942 | 58050 ft | 1122 kts | 228° |
| 2026-05-06 22:50 | 48.42241 | -12.65977 | 58043 ft | 1123 kts | 227° |
| 2026-05-06 22:51 | 48.31375 | -12.82933 | 58017 ft | 1125 kts | 226° |
| 2026-05-06 22:51 | 48.20488 | -12.99796 | 58010 ft | 1126 kts | 226° |
| 2026-05-06 22:52 | 48.09544 | -13.16636 | 57996 ft | 1128 kts | 226° |
| 2026-05-06 22:52 | 47.98576 | -13.33404 | 57992 ft | 1129 kts | 226° |
| 2026-05-06 22:53 | 47.87569 | -13.50123 | 57992 ft | 1130 kts | 226° |
| 2026-05-06 22:53 | 47.76527 | -13.66787 | 58006 ft | 1131 kts | 226° |
| 2026-05-06 22:54 | 47.65518 | -13.83297 | 57993 ft | 1131 kts | 226° |
| 2026-05-06 22:54 | 47.56210 | -13.97172 | 58006 ft | 1132 kts | 226° |
| 2026-05-06 22:55 | 47.43284 | -14.16320 | 57999 ft | 1132 kts | 225° |
| 2026-05-06 22:55 | 47.34007 | -14.29975 | 58008 ft | 1132 kts | 225° |
| 2026-05-06 22:56 | 47.22833 | -14.46328 | 58006 ft | 1132 kts | 225° |
| 2026-05-06 22:56 | 47.11621 | -14.62634 | 58007 ft | 1132 kts | 225° |
| 2026-05-06 22:56 | 47.06021 | -14.70740 | 58355 ft | 1128 kts | 225° |
| 2026-05-06 22:57 | 47.00416 | -14.78828 | 57887 ft | 1133 kts | 225° |
| 2026-05-06 22:57 | 46.94776 | -14.86940 | 57765 ft | 1133 kts | 225° |
| 2026-05-06 22:57 | 46.89137 | -14.95027 | 57918 ft | 1132 kts | 225° |
| 2026-05-06 22:58 | 46.77888 | -15.11083 | 57998 ft | 1131 kts | 225° |
| 2026-05-06 22:58 | 46.66659 | -15.27012 | 58013 ft | 1131 kts | 225° |
| 2026-05-06 22:59 | 46.55348 | -15.42960 | 58017 ft | 1132 kts | 225° |
| 2026-05-06 22:59 | 46.44024 | -15.58828 | 58014 ft | 1132 kts | 224° |
| 2026-05-06 23:00 | 46.32669 | -15.74642 | 58023 ft | 1132 kts | 224° |
| 2026-05-06 23:00 | 46.21299 | -15.90384 | 58022 ft | 1132 kts | 224° |
| 2026-05-06 23:01 | 46.09906 | -16.06061 | 58034 ft | 1132 kts | 224° |
| 2026-05-06 23:01 | 45.98471 | -16.21701 | 58024 ft | 1132 kts | 224° |
| 2026-05-06 23:02 | 45.87350 | -16.36823 | 58020 ft | 1134 kts | 224° |
| 2026-05-06 23:02 | 45.75855 | -16.52361 | 58018 ft | 1138 kts | 224° |
| 2026-05-06 23:03 | 45.64299 | -16.67889 | 58020 ft | 1141 kts | 224° |
| 2026-05-06 23:03 | 45.52680 | -16.83410 | 58024 ft | 1144 kts | 224° |
| 2026-05-06 23:04 | 45.41014 | -16.98900 | 58024 ft | 1147 kts | 224° |
| 2026-05-06 23:04 | 45.29299 | -17.14363 | 58027 ft | 1149 kts | 224° |
| 2026-05-06 23:05 | 45.17545 | -17.29787 | 58022 ft | 1151 kts | 224° |
| 2026-05-06 23:05 | 45.05842 | -17.45055 | 58028 ft | 1153 kts | 224° |
| 2026-05-06 23:06 | 44.94011 | -17.60398 | 58030 ft | 1155 kts | 223° |
| 2026-05-06 23:06 | 44.82131 | -17.75716 | 58032 ft | 1155 kts | 223° |
| 2026-05-06 23:07 | 44.70260 | -17.90933 | 58040 ft | 1153 kts | 223° |
| 2026-05-06 23:07 | 44.58362 | -18.06096 | 58025 ft | 1152 kts | 223° |
| 2026-05-06 23:08 | 44.46556 | -18.21055 | 58029 ft | 1152 kts | 223° |
| 2026-05-06 23:08 | 44.34651 | -18.36055 | 58022 ft | 1152 kts | 223° |
| 2026-05-06 23:09 | 44.22726 | -18.50994 | 58032 ft | 1152 kts | 223° |
| 2026-05-06 23:09 | 44.10780 | -18.65874 | 58028 ft | 1152 kts | 222° |
| 2026-05-06 23:10 | 43.98807 | -18.80704 | 58023 ft | 1152 kts | 222° |
| 2026-05-06 23:10 | 43.86804 | -18.95488 | 58041 ft | 1152 kts | 222° |
| 2026-05-06 23:11 | 43.74790 | -19.10202 | 58022 ft | 1153 kts | 222° |
| 2026-05-06 23:11 | 43.62754 | -19.24862 | 58015 ft | 1153 kts | 222° |
| 2026-05-06 23:12 | 43.50775 | -19.39371 | 58020 ft | 1154 kts | 222° |
| 2026-05-06 23:12 | 43.38686 | -19.53933 | 58022 ft | 1155 kts | 222° |
| 2026-05-06 23:13 | 43.26557 | -19.68463 | 58021 ft | 1156 kts | 221° |
| 2026-05-06 23:13 | 43.14412 | -19.82932 | 58017 ft | 1157 kts | 221° |
| 2026-05-06 23:14 | 43.02239 | -19.97352 | 58014 ft | 1157 kts | 221° |
| 2026-05-06 23:14 | 42.90282 | -20.12063 | 58051 ft | 1156 kts | 223° |
| 2026-05-06 23:15 | 42.78353 | -20.26784 | 58031 ft | 1157 kts | 223° |
| 2026-05-06 23:15 | 42.66418 | -20.41441 | 58012 ft | 1157 kts | 223° |
| 2026-05-06 23:16 | 42.54450 | -20.56057 | 58009 ft | 1157 kts | 223° |
| 2026-05-06 23:16 | 42.42464 | -20.70616 | 58015 ft | 1157 kts | 223° |
| 2026-05-06 23:17 | 42.30468 | -20.85111 | 58011 ft | 1156 kts | 223° |
| 2026-05-06 23:17 | 42.18457 | -20.99546 | 58015 ft | 1156 kts | 223° |
| 2026-05-06 23:18 | 42.06509 | -21.13830 | 58013 ft | 1155 kts | 223° |
| 2026-05-06 23:18 | 41.94467 | -21.28151 | 58004 ft | 1155 kts | 223° |
| 2026-05-06 23:19 | 41.82386 | -21.42443 | 58014 ft | 1155 kts | 222° |
| 2026-05-06 23:19 | 41.70317 | -21.56645 | 58018 ft | 1155 kts | 222° |
| 2026-05-06 23:20 | 41.58235 | -21.70790 | 58010 ft | 1155 kts | 222° |
| 2026-05-06 23:20 | 41.46198 | -21.84809 | 58012 ft | 1155 kts | 222° |
| 2026-05-06 23:21 | 41.34070 | -21.98863 | 58021 ft | 1155 kts | 222° |
| 2026-05-06 23:21 | 41.21914 | -22.12876 | 58014 ft | 1155 kts | 222° |
| 2026-05-06 23:22 | 41.09740 | -22.26838 | 58028 ft | 1154 kts | 222° |
| 2026-05-06 23:22 | 40.97654 | -22.40630 | 58026 ft | 1154 kts | 222° |
| 2026-05-06 23:23 | 40.85472 | -22.54462 | 58025 ft | 1154 kts | 222° |
| 2026-05-06 23:23 | 40.73278 | -22.68237 | 58028 ft | 1154 kts | 222° |
| 2026-05-06 23:24 | 40.61056 | -22.81976 | 58026 ft | 1153 kts | 222° |
| 2026-05-06 23:24 | 40.48832 | -22.95648 | 58025 ft | 1153 kts | 221° |
| 2026-05-06 23:25 | 40.36589 | -23.09274 | 58029 ft | 1152 kts | 221° |
| 2026-05-06 23:25 | 40.24331 | -23.22848 | 58022 ft | 1152 kts | 221° |
| 2026-05-06 23:26 | 40.12072 | -23.36358 | 58039 ft | 1152 kts | 221° |
| 2026-05-06 23:26 | 39.99881 | -23.49728 | 58027 ft | 1151 kts | 221° |
| 2026-05-06 23:27 | 39.87605 | -23.63126 | 58032 ft | 1151 kts | 221° |
| 2026-05-06 23:27 | 39.75311 | -23.76479 | 58028 ft | 1151 kts | 221° |
| 2026-05-06 23:28 | 39.62988 | -23.89799 | 58031 ft | 1151 kts | 221° |
| 2026-05-06 23:28 | 39.50665 | -24.03055 | 58029 ft | 1151 kts | 221° |
| 2026-05-06 23:29 | 39.38324 | -24.16267 | 58035 ft | 1152 kts | 221° |
| 2026-05-06 23:29 | 39.25946 | -24.29457 | 58046 ft | 1152 kts | 221° |
| 2026-05-06 23:30 | 39.13568 | -24.42584 | 58038 ft | 1152 kts | 221° |
| 2026-05-06 23:30 | 39.01253 | -24.55583 | 58039 ft | 1153 kts | 221° |
| 2026-05-06 23:31 | 38.88819 | -24.68647 | 58043 ft | 1153 kts | 221° |
| 2026-05-06 23:31 | 38.76382 | -24.81653 | 58049 ft | 1154 kts | 221° |
| 2026-05-06 23:32 | 38.63915 | -24.94630 | 58053 ft | 1154 kts | 221° |
| 2026-05-06 23:32 | 38.51440 | -25.07555 | 58053 ft | 1155 kts | 221° |
| 2026-05-06 23:33 | 38.38929 | -25.20459 | 58050 ft | 1155 kts | 220° |
| 2026-05-06 23:33 | 38.26405 | -25.33316 | 58065 ft | 1156 kts | 220° |
| 2026-05-06 23:34 | 38.13928 | -25.46067 | 58057 ft | 1157 kts | 220° |
| 2026-05-06 23:34 | 38.01343 | -25.58871 | 58062 ft | 1158 kts | 220° |
| 2026-05-06 23:35 | 37.88737 | -25.71637 | 58072 ft | 1160 kts | 220° |
| 2026-05-06 23:35 | 37.76672 | -25.85144 | 58132 ft | 1156 kts | 225° |
| 2026-05-06 23:36 | 37.64909 | -25.99034 | 58095 ft | 1159 kts | 224° |
| 2026-05-06 23:36 | 37.53075 | -26.12868 | 58069 ft | 1162 kts | 224° |
| 2026-05-06 23:37 | 37.41256 | -26.26635 | 58075 ft | 1164 kts | 224° |
| 2026-05-06 23:37 | 37.29318 | -26.40482 | 58088 ft | 1167 kts | 224° |
| 2026-05-06 23:38 | 37.17359 | -26.54293 | 58088 ft | 1169 kts | 224° |
| 2026-05-06 23:38 | 37.05359 | -26.68088 | 58087 ft | 1172 kts | 224° |
| 2026-05-06 23:39 | 36.93310 | -26.81878 | 58095 ft | 1174 kts | 224° |
| 2026-05-06 23:39 | 36.81219 | -26.95655 | 58102 ft | 1177 kts | 224° |
| 2026-05-06 23:40 | 36.69168 | -27.09324 | 58100 ft | 1179 kts | 224° |
| 2026-05-06 23:40 | 36.56990 | -27.23077 | 58104 ft | 1182 kts | 224° |
| 2026-05-06 23:41 | 36.44779 | -27.36804 | 58112 ft | 1184 kts | 224° |
| 2026-05-06 23:41 | 36.34590 | -27.48214 | 58121 ft | 1186 kts | 224° |
| 2026-05-06 23:42 | 36.22309 | -27.61909 | 58119 ft | 1188 kts | 224° |
| 2026-05-06 23:42 | 36.09984 | -27.75592 | 58123 ft | 1190 kts | 224° |
| 2026-05-06 23:43 | 35.97636 | -27.89242 | 58128 ft | 1192 kts | 224° |
| 2026-05-06 23:43 | 35.85240 | -28.02884 | 58132 ft | 1194 kts | 224° |
| 2026-05-06 23:44 | 35.72877 | -28.16432 | 58132 ft | 1196 kts | 224° |
| 2026-05-06 23:44 | 35.60401 | -28.30042 | 58142 ft | 1198 kts | 224° |
| 2026-05-06 23:45 | 35.47894 | -28.43629 | 58144 ft | 1200 kts | 224° |
| 2026-05-06 23:45 | 35.35357 | -28.57188 | 58145 ft | 1203 kts | 224° |
| 2026-05-06 23:46 | 35.22769 | -28.70745 | 58149 ft | 1206 kts | 224° |
| 2026-05-06 23:46 | 35.10259 | -28.84157 | 58148 ft | 1196 kts | 224° |
| 2026-05-06 23:46 | 35.04029 | -28.90817 | 58150 ft | 1183 kts | 224° |
| 2026-05-06 23:47 | 34.97870 | -28.97388 | 58145 ft | 1171 kts | 224° |
| 2026-05-06 23:47 | 34.91753 | -29.03899 | 58145 ft | 1158 kts | 224° |
| 2026-05-06 23:47 | 34.85710 | -29.10320 | 58151 ft | 1147 kts | 224° |
| 2026-05-06 23:48 | 34.73681 | -29.23061 | 58159 ft | 1149 kts | 224° |
| 2026-05-06 23:48 | 34.61619 | -29.35783 | 58163 ft | 1148 kts | 224° |
| 2026-05-06 23:49 | 34.49672 | -29.48335 | 58159 ft | 1147 kts | 224° |
| 2026-05-06 23:49 | 34.37673 | -29.60892 | 58169 ft | 1147 kts | 224° |
| 2026-05-06 23:50 | 34.25579 | -29.73499 | 58169 ft | 1147 kts | 224° |
| 2026-05-06 23:50 | 34.07411 | -29.92344 | 58183 ft | 1147 kts | 224° |
| 2026-05-06 23:51 | 33.95781 | -30.05387 | 58257 ft | 1137 kts | 234° |
| 2026-05-06 23:51 | 33.86753 | -30.20852 | 58245 ft | 1121 kts | 241° |
| 2026-05-06 23:52 | 33.77803 | -30.36041 | 58246 ft | 1116 kts | 238° |
| 2026-05-06 23:52 | 33.68526 | -30.51064 | 58197 ft | 1120 kts | 237° |
| 2026-05-06 23:53 | 33.59224 | -30.65986 | 58191 ft | 1115 kts | 237° |
| 2026-05-06 23:53 | 33.49867 | -30.80952 | 58201 ft | 1127 kts | 237° |
| 2026-05-06 23:54 | 33.40469 | -30.95925 | 58193 ft | 1122 kts | 237° |
| 2026-05-06 23:54 | 33.31108 | -31.10782 | 58188 ft | 1112 kts | 237° |
| 2026-05-06 23:55 | 33.21780 | -31.25530 | 58192 ft | 1115 kts | 237° |
| 2026-05-06 23:55 | 33.12429 | -31.40251 | 58200 ft | 1106 kts | 237° |
| 2026-05-06 23:56 | 33.03198 | -31.54729 | 58200 ft | 1099 kts | 236° |
| 2026-05-06 23:56 | 32.93901 | -31.69254 | 58207 ft | 1105 kts | 236° |
| 2026-05-06 23:57 | 32.84570 | -31.83771 | 58210 ft | 1103 kts | 236° |
| 2026-05-06 23:57 | 32.75195 | -31.98302 | 58201 ft | 1103 kts | 236° |
| 2026-05-06 23:58 | 32.70551 | -32.05477 | 58198 ft | 1083 kts | 236° |
| 2026-05-06 23:58 | 32.66002 | -32.12495 | 58197 ft | 1063 kts | 236° |
| 2026-05-06 23:58 | 32.57012 | -32.26332 | 58212 ft | 1062 kts | 236° |
| 2026-05-06 23:59 | 32.48022 | -32.40106 | 58214 ft | 1062 kts | 236° |
| 2026-05-06 23:59 | 32.38982 | -32.53910 | 58220 ft | 1066 kts | 236° |
| 2026-05-07 00:00 | 32.29856 | -32.67794 | 58217 ft | 1070 kts | 236° |
| 2026-05-07 00:00 | 32.20706 | -32.81664 | 58224 ft | 1073 kts | 236° |
| 2026-05-07 00:01 | 32.11507 | -32.95557 | 58217 ft | 1074 kts | 236° |
| 2026-05-07 00:01 | 32.02280 | -33.09441 | 58223 ft | 1075 kts | 235° |
| 2026-05-07 00:02 | 31.93021 | -33.23322 | 58223 ft | 1078 kts | 235° |
| 2026-05-07 00:02 | 31.83790 | -33.37113 | 58222 ft | 1080 kts | 235° |
| 2026-05-07 00:03 | 31.74479 | -33.50971 | 58219 ft | 1080 kts | 235° |
| 2026-05-07 00:03 | 31.65132 | -33.64834 | 58221 ft | 1081 kts | 235° |
| 2026-05-07 00:04 | 31.55758 | -33.78685 | 58216 ft | 1083 kts | 235° |
| 2026-05-07 00:04 | 31.46370 | -33.92509 | 58219 ft | 1085 kts | 234° |
| 2026-05-07 00:05 | 31.36956 | -34.06319 | 58220 ft | 1087 kts | 234° |
| 2026-05-07 00:05 | 31.27507 | -34.20133 | 58228 ft | 1086 kts | 234° |
| 2026-05-07 00:06 | 31.18101 | -34.33834 | 58224 ft | 1087 kts | 234° |
| 2026-05-07 00:06 | 31.08599 | -34.47627 | 58231 ft | 1089 kts | 234° |
| 2026-05-07 00:07 | 30.99081 | -34.61395 | 58231 ft | 1091 kts | 234° |
| 2026-05-07 00:07 | 30.89543 | -34.75140 | 58228 ft | 1090 kts | 234° |
| 2026-05-07 00:08 | 30.80061 | -34.88759 | 58234 ft | 1089 kts | 234° |
| 2026-05-07 00:08 | 30.70491 | -35.02457 | 58229 ft | 1090 kts | 234° |
| 2026-05-07 00:09 | 30.60913 | -35.16117 | 58222 ft | 1091 kts | 234° |
| 2026-05-07 00:09 | 30.51329 | -35.29741 | 58229 ft | 1090 kts | 233° |
| 2026-05-07 00:10 | 30.41713 | -35.43360 | 58230 ft | 1089 kts | 233° |
| 2026-05-07 00:10 | 30.32093 | -35.56941 | 58242 ft | 1090 kts | 233° |
| 2026-05-07 00:11 | 30.22511 | -35.70422 | 58232 ft | 1091 kts | 233° |
| 2026-05-07 00:11 | 30.12856 | -35.83957 | 58222 ft | 1090 kts | 233° |
| 2026-05-07 00:12 | 30.03188 | -35.97467 | 58226 ft | 1090 kts | 233° |
| 2026-05-07 00:12 | 29.93505 | -36.10951 | 58219 ft | 1091 kts | 233° |
| 2026-05-07 00:13 | 29.83813 | -36.24403 | 58226 ft | 1092 kts | 233° |
| 2026-05-07 00:13 | 29.74100 | -36.37838 | 58222 ft | 1092 kts | 233° |
| 2026-05-07 00:14 | 29.64364 | -36.51261 | 58223 ft | 1091 kts | 233° |
| 2026-05-07 00:14 | 29.54618 | -36.64653 | 58225 ft | 1092 kts | 233° |
| 2026-05-07 00:15 | 29.44925 | -36.77928 | 58220 ft | 1093 kts | 233° |
| 2026-05-07 00:15 | 29.35133 | -36.91296 | 58228 ft | 1093 kts | 233° |
| 2026-05-07 00:16 | 29.25344 | -37.04615 | 58220 ft | 1093 kts | 233° |
| 2026-05-07 00:16 | 29.15523 | -37.17934 | 58218 ft | 1094 kts | 232° |
| 2026-05-07 00:17 | 29.05698 | -37.31216 | 58221 ft | 1094 kts | 232° |
| 2026-05-07 00:17 | 28.95850 | -37.44485 | 58229 ft | 1095 kts | 232° |
| 2026-05-07 00:18 | 28.85984 | -37.57737 | 58221 ft | 1094 kts | 232° |
| 2026-05-07 00:18 | 28.76097 | -37.70972 | 58218 ft | 1095 kts | 232° |
| 2026-05-07 00:19 | 28.66199 | -37.84182 | 58217 ft | 1096 kts | 232° |
| 2026-05-07 00:19 | 28.56328 | -37.97313 | 58216 ft | 1096 kts | 232° |
| 2026-05-07 00:20 | 28.46408 | -38.10468 | 58210 ft | 1096 kts | 232° |
| 2026-05-07 00:20 | 28.36466 | -38.23610 | 58211 ft | 1095 kts | 232° |
| 2026-05-07 00:21 | 28.26503 | -38.36739 | 58209 ft | 1096 kts | 232° |
| 2026-05-07 00:21 | 28.16599 | -38.49750 | 58220 ft | 1097 kts | 232° |
| 2026-05-07 00:22 | 28.06556 | -38.62903 | 58213 ft | 1098 kts | 232° |
| 2026-05-07 00:22 | 27.96620 | -38.75874 | 58208 ft | 1097 kts | 232° |
| 2026-05-07 00:23 | 27.86605 | -38.88909 | 58205 ft | 1097 kts | 231° |
| 2026-05-07 00:23 | 27.76576 | -39.01922 | 58200 ft | 1098 kts | 231° |
| 2026-05-07 00:24 | 27.66531 | -39.14917 | 58206 ft | 1099 kts | 231° |
| 2026-05-07 00:24 | 27.56468 | -39.27894 | 58199 ft | 1098 kts | 231° |
| 2026-05-07 00:25 | 27.46397 | -39.40842 | 58198 ft | 1098 kts | 231° |
| 2026-05-07 00:25 | 27.37998 | -39.51611 | 58198 ft | 1099 kts | 231° |
| 2026-05-07 00:26 | 27.26254 | -39.66625 | 58201 ft | 1100 kts | 231° |
| 2026-05-07 00:26 | 27.16143 | -39.79510 | 58197 ft | 1100 kts | 231° |
| 2026-05-07 00:27 | 27.05995 | -39.92401 | 58195 ft | 1099 kts | 231° |
| 2026-05-07 00:27 | 26.96328 | -40.05646 | 58238 ft | 1093 kts | 239° |
| 2026-05-07 00:28 | 26.87620 | -40.19640 | 58218 ft | 1095 kts | 237° |
| 2026-05-07 00:28 | 26.80274 | -40.31219 | 58200 ft | 1096 kts | 237° |
| 2026-05-07 00:29 | 26.69987 | -40.47389 | 58184 ft | 1096 kts | 237° |
| 2026-05-07 00:30 | 26.53704 | -40.72883 | 58185 ft | 1096 kts | 237° |
| 2026-05-07 00:30 | 26.44882 | -40.86639 | 58199 ft | 1097 kts | 237° |
| 2026-05-07 00:31 | 26.35984 | -41.00471 | 58185 ft | 1097 kts | 237° |
| 2026-05-07 00:31 | 26.27075 | -41.14279 | 58189 ft | 1097 kts | 236° |
| 2026-05-07 00:32 | 26.18153 | -41.28064 | 58183 ft | 1097 kts | 236° |
| 2026-05-07 00:32 | 26.09200 | -41.41857 | 58181 ft | 1098 kts | 236° |
| 2026-05-07 00:33 | 26.00233 | -41.55629 | 58178 ft | 1099 kts | 236° |
| 2026-05-07 00:33 | 25.91266 | -41.69362 | 58178 ft | 1098 kts | 236° |
| 2026-05-07 00:34 | 25.82331 | -41.83003 | 58169 ft | 1098 kts | 236° |
| 2026-05-07 00:34 | 25.73322 | -41.96718 | 58173 ft | 1099 kts | 236° |
| 2026-05-07 00:35 | 25.64287 | -42.10432 | 58169 ft | 1101 kts | 236° |
| 2026-05-07 00:35 | 25.55251 | -42.24108 | 58178 ft | 1101 kts | 236° |
| 2026-05-07 00:36 | 25.46239 | -42.37708 | 58176 ft | 1100 kts | 236° |
| 2026-05-07 00:36 | 25.37159 | -42.51369 | 58165 ft | 1100 kts | 236° |
| 2026-05-07 00:37 | 25.28088 | -42.64981 | 58163 ft | 1101 kts | 235° |
| 2026-05-07 00:37 | 25.18993 | -42.78587 | 58164 ft | 1101 kts | 235° |
| 2026-05-07 00:38 | 25.09879 | -42.92183 | 58168 ft | 1100 kts | 235° |
| 2026-05-07 00:38 | 25.00766 | -43.05738 | 58158 ft | 1100 kts | 235° |
| 2026-05-07 00:39 | 24.91633 | -43.19286 | 58158 ft | 1100 kts | 235° |
| 2026-05-07 00:39 | 24.82553 | -43.32718 | 58153 ft | 1101 kts | 235° |
| 2026-05-07 00:40 | 24.73395 | -43.46225 | 58152 ft | 1101 kts | 235° |
| 2026-05-07 00:40 | 24.64220 | -43.59721 | 58158 ft | 1100 kts | 234° |
| 2026-05-07 00:41 | 24.55035 | -43.73194 | 58146 ft | 1100 kts | 234° |
| 2026-05-07 00:41 | 24.45844 | -43.86639 | 58143 ft | 1101 kts | 234° |
| 2026-05-07 00:42 | 24.36637 | -44.00070 | 58144 ft | 1100 kts | 234° |
| 2026-05-07 00:42 | 24.27480 | -44.13392 | 58147 ft | 1099 kts | 234° |
| 2026-05-07 00:43 | 24.18257 | -44.26772 | 58172 ft | 1100 kts | 234° |
| 2026-05-07 00:43 | 24.09008 | -44.40156 | 58162 ft | 1100 kts | 234° |
| 2026-05-07 00:44 | 23.99755 | -44.53507 | 58143 ft | 1100 kts | 234° |
| 2026-05-07 00:44 | 23.90501 | -44.66825 | 58130 ft | 1098 kts | 234° |
| 2026-05-07 00:45 | 23.81305 | -44.80025 | 58137 ft | 1099 kts | 234° |
| 2026-05-07 00:45 | 23.72034 | -44.93297 | 58130 ft | 1099 kts | 234° |
| 2026-05-07 00:46 | 23.62699 | -45.06625 | 58128 ft | 1098 kts | 234° |
| 2026-05-07 00:46 | 23.53466 | -45.19772 | 58125 ft | 1097 kts | 234° |
| 2026-05-07 00:47 | 23.44162 | -45.32987 | 58126 ft | 1098 kts | 234° |
| 2026-05-07 00:47 | 23.34854 | -45.46173 | 58126 ft | 1098 kts | 234° |
| 2026-05-07 00:48 | 23.25523 | -45.59357 | 58118 ft | 1097 kts | 233° |
| 2026-05-07 00:48 | 23.16199 | -45.72496 | 58118 ft | 1094 kts | 233° |
| 2026-05-07 00:49 | 23.06907 | -45.85566 | 58023 ft | 1094 kts | 233° |
| 2026-05-07 00:49 | 22.97626 | -45.98576 | 58080 ft | 1099 kts | 233° |
| 2026-05-07 00:50 | 22.88254 | -46.11680 | 58119 ft | 1097 kts | 233° |
| 2026-05-07 00:50 | 22.78884 | -46.24753 | 58133 ft | 1099 kts | 233° |
| 2026-05-07 00:51 | 22.69495 | -46.37819 | 58135 ft | 1099 kts | 233° |
| 2026-05-07 00:51 | 22.60092 | -46.50871 | 58131 ft | 1097 kts | 233° |
| 2026-05-07 00:52 | 22.50684 | -46.63899 | 58123 ft | 1098 kts | 233° |
| 2026-05-07 00:52 | 22.41267 | -46.76906 | 58115 ft | 1098 kts | 233° |
| 2026-05-07 00:53 | 22.31831 | -46.89907 | 58111 ft | 1097 kts | 233° |
| 2026-05-07 00:53 | 22.22470 | -47.02775 | 58108 ft | 1098 kts | 233° |
| 2026-05-07 00:54 | 22.13028 | -47.15721 | 58101 ft | 1097 kts | 233° |
| 2026-05-07 00:54 | 22.03584 | -47.28639 | 58106 ft | 1097 kts | 233° |
| 2026-05-07 00:55 | 21.94122 | -47.41551 | 58103 ft | 1096 kts | 233° |
| 2026-05-07 00:55 | 21.84637 | -47.54463 | 58098 ft | 1096 kts | 233° |
| 2026-05-07 00:56 | 21.75160 | -47.67333 | 58095 ft | 1097 kts | 233° |
| 2026-05-07 00:56 | 21.65737 | -47.80100 | 58097 ft | 1096 kts | 232° |
| 2026-05-07 00:57 | 21.56248 | -47.92927 | 58099 ft | 1097 kts | 232° |
| 2026-05-07 00:57 | 21.46744 | -48.05743 | 58102 ft | 1095 kts | 232° |
| 2026-05-07 00:58 | 21.37229 | -48.18545 | 58102 ft | 1096 kts | 232° |
| 2026-05-07 00:58 | 21.27715 | -48.31315 | 58095 ft | 1095 kts | 232° |
| 2026-05-07 00:59 | 21.13422 | -48.50445 | 58093 ft | 1096 kts | 232° |
| 2026-05-07 01:00 | 21.03881 | -48.63179 | 58093 ft | 1096 kts | 232° |
| 2026-05-07 01:00 | 20.94378 | -48.75832 | 58093 ft | 1095 kts | 232° |
| 2026-05-07 01:01 | 20.84814 | -48.88539 | 58104 ft | 1095 kts | 232° |
| 2026-05-07 01:01 | 20.75244 | -49.01225 | 58101 ft | 1095 kts | 232° |
| 2026-05-07 01:02 | 20.65664 | -49.13896 | 58088 ft | 1095 kts | 232° |
| 2026-05-07 01:02 | 20.56086 | -49.26536 | 58090 ft | 1094 kts | 232° |
| 2026-05-07 01:03 | 20.46560 | -49.39080 | 58078 ft | 1094 kts | 232° |
| 2026-05-07 01:03 | 20.36965 | -49.51686 | 58089 ft | 1094 kts | 232° |
| 2026-05-07 01:04 | 20.27352 | -49.64289 | 58078 ft | 1094 kts | 232° |
| 2026-05-07 01:04 | 20.17746 | -49.76856 | 58088 ft | 1094 kts | 232° |
| 2026-05-07 01:05 | 20.08181 | -49.89341 | 58095 ft | 1094 kts | 232° |
| 2026-05-07 01:05 | 19.98600 | -50.01935 | 58100 ft | 1093 kts | 237° |
| 2026-05-07 01:06 | 19.90037 | -50.15295 | 58152 ft | 1093 kts | 236° |
| 2026-05-07 01:06 | 19.81379 | -50.28574 | 58113 ft | 1093 kts | 236° |
| 2026-05-07 01:07 | 19.72696 | -50.41836 | 58106 ft | 1092 kts | 236° |
| 2026-05-07 01:07 | 19.64011 | -50.55076 | 58099 ft | 1093 kts | 236° |
| 2026-05-07 01:08 | 19.55324 | -50.68292 | 58098 ft | 1092 kts | 236° |
| 2026-05-07 01:08 | 19.46619 | -50.81510 | 58089 ft | 1092 kts | 236° |
| 2026-05-07 01:09 | 19.37971 | -50.94611 | 58086 ft | 1093 kts | 236° |
| 2026-05-07 01:09 | 19.29245 | -51.07802 | 58086 ft | 1092 kts | 236° |
| 2026-05-07 01:10 | 19.20514 | -51.20972 | 58092 ft | 1093 kts | 236° |
| 2026-05-07 01:10 | 19.11767 | -51.34139 | 58085 ft | 1092 kts | 236° |
| 2026-05-07 01:11 | 19.03013 | -51.47290 | 58080 ft | 1093 kts | 236° |
| 2026-05-07 01:11 | 18.94300 | -51.60348 | 58095 ft | 1093 kts | 236° |
| 2026-05-07 01:12 | 18.85516 | -51.73488 | 58093 ft | 1093 kts | 235° |
| 2026-05-07 01:12 | 18.76733 | -51.86597 | 58086 ft | 1093 kts | 235° |
| 2026-05-07 01:13 | 18.67946 | -51.99687 | 58079 ft | 1093 kts | 235° |
| 2026-05-07 01:13 | 18.59272 | -52.12580 | 58082 ft | 1094 kts | 235° |
| 2026-05-07 01:14 | 18.50464 | -52.25647 | 58081 ft | 1093 kts | 235° |
| 2026-05-07 01:14 | 18.41646 | -52.38701 | 58077 ft | 1093 kts | 235° |
| 2026-05-07 01:15 | 18.32827 | -52.51731 | 58073 ft | 1093 kts | 235° |
| 2026-05-07 01:15 | 18.23977 | -52.64778 | 58074 ft | 1093 kts | 235° |
| 2026-05-07 01:16 | 18.15138 | -52.77785 | 58073 ft | 1094 kts | 235° |
| 2026-05-07 01:16 | 18.06330 | -52.90720 | 58072 ft | 1094 kts | 235° |
| 2026-05-07 01:17 | 17.97399 | -53.03670 | 58113 ft | 1095 kts | 232° |
| 2026-05-07 01:17 | 17.88118 | -53.16388 | 58104 ft | 1095 kts | 233° |
| 2026-05-07 01:18 | 17.80444 | -53.26947 | 58096 ft | 1095 kts | 233° |
| 2026-05-07 01:18 | 17.71193 | -53.39654 | 58087 ft | 1094 kts | 233° |
| 2026-05-07 01:19 | 17.61938 | -53.52345 | 58079 ft | 1095 kts | 233° |
| 2026-05-07 01:19 | 17.52673 | -53.65025 | 58078 ft | 1095 kts | 233° |
| 2026-05-07 01:20 | 17.43406 | -53.77683 | 58128 ft | 1095 kts | 233° |
| 2026-05-07 01:20 | 17.34172 | -53.90273 | 58089 ft | 1096 kts | 233° |
| 2026-05-07 01:21 | 17.24879 | -54.02919 | 58063 ft | 1096 kts | 233° |
| 2026-05-07 01:21 | 17.15848 | -54.15186 | 58072 ft | 1095 kts | 233° |
| 2026-05-07 01:22 | 17.06541 | -54.27805 | 58070 ft | 1096 kts | 233° |
| 2026-05-07 01:22 | 16.97228 | -54.40411 | 58062 ft | 1097 kts | 233° |
| 2026-05-07 01:23 | 16.87887 | -54.53030 | 58061 ft | 1096 kts | 233° |
| 2026-05-07 01:23 | 16.78547 | -54.65625 | 58063 ft | 1096 kts | 233° |
| 2026-05-07 01:24 | 16.69191 | -54.78218 | 58060 ft | 1097 kts | 233° |
| 2026-05-07 01:24 | 16.59837 | -54.90787 | 58064 ft | 1096 kts | 232° |
| 2026-05-07 01:25 | 16.50533 | -55.03265 | 58065 ft | 1096 kts | 232° |
| 2026-05-07 01:25 | 16.41171 | -55.15800 | 58055 ft | 1097 kts | 232° |
| 2026-05-07 01:26 | 16.31803 | -55.28322 | 58054 ft | 1097 kts | 232° |
| 2026-05-07 01:26 | 16.22418 | -55.40844 | 58058 ft | 1096 kts | 232° |
| 2026-05-07 01:27 | 16.13021 | -55.53359 | 58059 ft | 1097 kts | 232° |
| 2026-05-07 01:27 | 16.03618 | -55.65862 | 58054 ft | 1097 kts | 232° |
| 2026-05-07 01:28 | 15.94200 | -55.78363 | 58051 ft | 1089 kts | 232° |
| 2026-05-07 01:28 | 15.89574 | -55.84496 | 57459 ft | 1068 kts | 232° |
| 2026-05-07 01:28 | 15.85044 | -55.90496 | 56754 ft | 1049 kts | 232° |
| 2026-05-07 01:28 | 15.80579 | -55.96406 | 56037 ft | 1029 kts | 232° |
| 2026-05-07 01:29 | 15.76201 | -56.02195 | 55675 ft | 1006 kts | 232° |
| 2026-05-07 01:29 | 15.71936 | -56.07831 | 55435 ft | 982 kts | 232° |
| 2026-05-07 01:29 | 15.67813 | -56.13275 | 55091 ft | 960 kts | 232° |
| 2026-05-07 01:29 | 15.63737 | -56.18654 | 54756 ft | 938 kts | 232° |
| 2026-05-07 01:30 | 15.59746 | -56.23916 | 54414 ft | 917 kts | 232° |
| 2026-05-07 01:30 | 15.55848 | -56.29053 | 54071 ft | 895 kts | 232° |
| 2026-05-07 01:30 | 15.52041 | -56.34065 | 53734 ft | 872 kts | 232° |
| 2026-05-07 01:30 | 15.48337 | -56.38939 | 53391 ft | 849 kts | 232° |
| 2026-05-07 01:31 | 15.44730 | -56.43682 | 53046 ft | 826 kts | 232° |
| 2026-05-07 01:31 | 15.41226 | -56.48288 | 52705 ft | 802 kts | 232° |
| 2026-05-07 01:31 | 15.37823 | -56.52757 | 52366 ft | 778 kts | 232° |
| 2026-05-07 01:31 | 15.34524 | -56.57088 | 52034 ft | 754 kts | 232° |
| 2026-05-07 01:32 | 15.31321 | -56.61290 | 51693 ft | 733 kts | 232° |
| 2026-05-07 01:32 | 15.28191 | -56.65395 | 51360 ft | 721 kts | 232° |
| 2026-05-07 01:32 | 15.25090 | -56.69459 | 51031 ft | 714 kts | 232° |
| 2026-05-07 01:32 | 15.22027 | -56.73471 | 50713 ft | 710 kts | 232° |
| 2026-05-07 01:33 | 15.18960 | -56.77486 | 50375 ft | 707 kts | 232° |
| 2026-05-07 01:33 | 15.15911 | -56.81476 | 50049 ft | 705 kts | 232° |
| 2026-05-07 01:33 | 15.12876 | -56.85445 | 49723 ft | 702 kts | 232° |
| 2026-05-07 01:33 | 15.09846 | -56.89405 | 49303 ft | 699 kts | 232° |
| 2026-05-07 01:34 | 15.06831 | -56.93344 | 48834 ft | 696 kts | 232° |
| 2026-05-07 01:34 | 15.03873 | -56.97206 | 48369 ft | 691 kts | 232° |
| 2026-05-07 01:34 | 15.00904 | -57.01082 | 47895 ft | 685 kts | 232° |
| 2026-05-07 01:34 | 14.97955 | -57.04928 | 47425 ft | 679 kts | 232° |
| 2026-05-07 01:35 | 14.95029 | -57.08743 | 46963 ft | 673 kts | 232° |
| 2026-05-07 01:35 | 14.92133 | -57.12518 | 46478 ft | 667 kts | 232° |
| 2026-05-07 01:35 | 14.89253 | -57.16269 | 46007 ft | 662 kts | 232° |
| 2026-05-07 01:35 | 14.86405 | -57.19978 | 45534 ft | 656 kts | 232° |
| 2026-05-07 01:36 | 14.83578 | -57.23656 | 45062 ft | 651 kts | 232° |
| 2026-05-07 01:36 | 14.80772 | -57.27306 | 44544 ft | 645 kts | 232° |
| 2026-05-07 01:36 | 14.77995 | -57.30917 | 43953 ft | 640 kts | 232° |
| 2026-05-07 01:36 | 14.75236 | -57.34503 | 43398 ft | 634 kts | 232° |
| 2026-05-07 01:37 | 14.72497 | -57.38061 | 42832 ft | 629 kts | 232° |
| 2026-05-07 01:37 | 14.69783 | -57.41584 | 42256 ft | 625 kts | 232° |
| 2026-05-07 01:37 | 14.67082 | -57.45090 | 41656 ft | 621 kts | 232° |
| 2026-05-07 01:37 | 14.64426 | -57.48536 | 41088 ft | 617 kts | 232° |
| 2026-05-07 01:38 | 14.61755 | -57.51999 | 40529 ft | 612 kts | 232° |
| 2026-05-07 01:38 | 14.59118 | -57.55417 | 39982 ft | 607 kts | 232° |
| 2026-05-07 01:38 | 14.56492 | -57.58820 | 39454 ft | 604 kts | 232° |
| 2026-05-07 01:38 | 14.53876 | -57.62206 | 38938 ft | 600 kts | 232° |
| 2026-05-07 01:39 | 14.51281 | -57.65566 | 38367 ft | 597 kts | 232° |
| 2026-05-07 01:39 | 14.48698 | -57.68908 | 37773 ft | 594 kts | 232° |
| 2026-05-07 01:39 | 14.46127 | -57.72234 | 37192 ft | 590 kts | 232° |
| 2026-05-07 01:39 | 14.43575 | -57.75533 | 36495 ft | 587 kts | 232° |
| 2026-05-07 01:40 | 14.41038 | -57.78812 | 35794 ft | 580 kts | 232° |
| 2026-05-07 01:40 | 14.38532 | -57.82048 | 35017 ft | 573 kts | 232° |
| 2026-05-07 01:40 | 14.36059 | -57.85242 | 34202 ft | 568 kts | 232° |
| 2026-05-07 01:40 | 14.33608 | -57.88406 | 33356 ft | 558 kts | 232° |
| 2026-05-07 01:41 | 14.31218 | -57.91489 | 32512 ft | 541 kts | 232° |
| 2026-05-07 01:41 | 14.28932 | -57.94437 | 31720 ft | 527 kts | 232° |
| 2026-05-07 01:41 | 14.26644 | -57.97388 | 30904 ft | 515 kts | 232° |
| 2026-05-07 01:41 | 14.24428 | -58.00244 | 30110 ft | 505 kts | 232° |
| 2026-05-07 01:42 | 14.22282 | -58.03010 | 29204 ft | 496 kts | 232° |
| 2026-05-07 01:42 | 14.20144 | -58.05765 | 28306 ft | 488 kts | 232° |
| 2026-05-07 01:42 | 14.18032 | -58.08484 | 27450 ft | 482 kts | 232° |
| 2026-05-07 01:42 | 14.15947 | -58.11168 | 26602 ft | 476 kts | 232° |
| 2026-05-07 01:43 | 14.13892 | -58.13811 | 25809 ft | 470 kts | 232° |
| 2026-05-07 01:43 | 14.11859 | -58.16427 | 25019 ft | 465 kts | 232° |
| 2026-05-07 01:43 | 14.09845 | -58.19017 | 24254 ft | 460 kts | 231° |
| 2026-05-07 01:43 | 14.07853 | -58.21579 | 23475 ft | 456 kts | 231° |
| 2026-05-07 01:44 | 14.05878 | -58.24114 | 22584 ft | 452 kts | 231° |
| 2026-05-07 01:44 | 14.03942 | -58.26601 | 21732 ft | 447 kts | 231° |
| 2026-05-07 01:44 | 14.02005 | -58.29090 | 20901 ft | 443 kts | 231° |
| 2026-05-07 01:44 | 14.00081 | -58.31561 | 20081 ft | 439 kts | 231° |
| 2026-05-07 01:45 | 13.98181 | -58.33999 | 19288 ft | 435 kts | 231° |
| 2026-05-07 01:45 | 13.96293 | -58.36421 | 18517 ft | 431 kts | 232° |
| 2026-05-07 01:45 | 13.94422 | -58.38821 | 17648 ft | 428 kts | 232° |
| 2026-05-07 01:45 | 13.92568 | -58.41198 | 16790 ft | 425 kts | 232° |
| 2026-05-07 01:46 | 13.90720 | -58.43567 | 15944 ft | 423 kts | 232° |
| 2026-05-07 01:46 | 13.88878 | -58.45930 | 15120 ft | 422 kts | 232° |
| 2026-05-07 01:46 | 13.87044 | -58.48283 | 14326 ft | 421 kts | 232° |
| 2026-05-07 01:46 | 13.85209 | -58.50634 | 13505 ft | 420 kts | 232° |
| 2026-05-07 01:47 | 13.83401 | -58.52949 | 12646 ft | 419 kts | 232° |
| 2026-05-07 01:47 | 13.81575 | -58.55287 | 11809 ft | 418 kts | 232° |
| 2026-05-07 01:47 | 13.79761 | -58.57608 | 10996 ft | 415 kts | 231° |
| 2026-05-07 01:47 | 13.77958 | -58.59916 | 10203 ft | 413 kts | 231° |
| 2026-05-07 01:48 | 13.76166 | -58.62209 | 9359 ft | 409 kts | 231° |
| 2026-05-07 01:48 | 13.74384 | -58.64483 | 8508 ft | 406 kts | 231° |
| 2026-05-07 01:48 | 13.72617 | -58.66741 | 7682 ft | 404 kts | 231° |
| 2026-05-07 01:48 | 13.70862 | -58.68986 | 6866 ft | 401 kts | 231° |
| 2026-05-07 01:49 | 13.69118 | -58.71216 | 6037 ft | 399 kts | 231° |
| 2026-05-07 01:49 | 13.67386 | -58.73429 | 5199 ft | 397 kts | 231° |
| 2026-05-07 01:49 | 13.65750 | -58.75522 | 4402 ft | 396 kts | 231° |
| 2026-05-07 01:49 | 13.63986 | -58.77776 | 3602 ft | 393 kts | 231° |
| 2026-05-07 01:50 | 13.62292 | -58.79937 | 3241 ft | 380 kts | 231° |
| 2026-05-07 01:50 | 13.60675 | -58.81998 | 3102 ft | 362 kts | 230° |
| 2026-05-07 01:50 | 13.59136 | -58.83961 | 3048 ft | 344 kts | 230° |
| 2026-05-07 01:50 | 13.57683 | -58.85814 | 3634 ft | 329 kts | 230° |
| 2026-05-07 01:51 | 13.56230 | -58.87663 | 4480 ft | 334 kts | 231° |
| 2026-05-07 01:51 | 13.54769 | -58.89525 | 5326 ft | 336 kts | 231° |
| 2026-05-07 01:51 | 13.53296 | -58.91407 | 6166 ft | 339 kts | 231° |
| 2026-05-07 01:51 | 13.51813 | -58.93302 | 6988 ft | 340 kts | 231° |
| 2026-05-07 01:52 | 13.50291 | -58.95242 | 7516 ft | 370 kts | 231° |
| 2026-05-07 01:52 | 13.48553 | -58.97454 | 7803 ft | 425 kts | 231° |
| 2026-05-07 01:52 | 13.46962 | -58.99479 | 8342 ft | 453 kts | 231° |
| 2026-05-07 01:52 | 13.44955 | -59.02035 | 9125 ft | 464 kts | 231° |
| 2026-05-07 01:53 | 13.42995 | -59.04531 | 9627 ft | 429 kts | 231° |
| 2026-05-07 01:53 | 13.41192 | -59.06826 | 9832 ft | 397 kts | 231° |
| 2026-05-07 01:53 | 13.39522 | -59.08951 | 9909 ft | 369 kts | 230° |
| 2026-05-07 01:53 | 13.37956 | -59.10941 | 9953 ft | 348 kts | 230° |
| 2026-05-07 01:54 | 13.36469 | -59.12832 | 9975 ft | 331 kts | 230° |
| 2026-05-07 01:54 | 13.36209 | -59.13163 | 9974 ft | 328 kts | 230° |
| 2026-05-07 01:55 | 13.34866 | -59.14872 | 9979 ft | 313 kts | 230° |
| 2026-05-07 01:55 | 13.33536 | -59.16560 | 9987 ft | 306 kts | 230° |
| 2026-05-07 01:55 | 13.32193 | -59.18267 | 10002 ft | 307 kts | 230° |
| 2026-05-07 01:55 | 13.30968 | -59.20050 | 9995 ft | 307 kts | 247° |
| 2026-05-07 01:56 | 13.30246 | -59.22115 | 10035 ft | 308 kts | 253° |
| 2026-05-07 01:56 | 13.29633 | -59.24221 | 10021 ft | 308 kts | 254° |
| 2026-05-07 01:56 | 13.29034 | -59.26328 | 10021 ft | 308 kts | 252° |
| 2026-05-07 01:56 | 13.28350 | -59.28411 | 10020 ft | 308 kts | 250° |
| 2026-05-07 01:57 | 13.27604 | -59.30469 | 10019 ft | 307 kts | 249° |
| 2026-05-07 01:57 | 13.26833 | -59.32515 | 10023 ft | 307 kts | 248° |
| 2026-05-07 01:57 | 13.26058 | -59.34561 | 10004 ft | 308 kts | 248° |
| 2026-05-07 01:57 | 13.25289 | -59.36610 | 10010 ft | 307 kts | 249° |
| 2026-05-07 01:58 | 13.24526 | -59.38660 | 10003 ft | 307 kts | 249° |
| 2026-05-07 01:58 | 13.23768 | -59.40707 | 9999 ft | 306 kts | 249° |
| 2026-05-07 01:58 | 13.23021 | -59.42728 | 9556 ft | 307 kts | 249° |
| 2026-05-07 01:58 | 13.22250 | -59.44809 | 8839 ft | 317 kts | 249° |
| 2026-05-07 01:59 | 13.21452 | -59.46953 | 8134 ft | 325 kts | 249° |
| 2026-05-07 01:59 | 13.20651 | -59.49112 | 7456 ft | 331 kts | 249° |
| 2026-05-07 01:59 | 13.19823 | -59.51342 | 6780 ft | 337 kts | 249° |
| 2026-05-07 01:59 | 13.18983 | -59.53601 | 6113 ft | 341 kts | 249° |
| 2026-05-07 02:00 | 13.18142 | -59.55859 | 5742 ft | 334 kts | 249° |
| 2026-05-07 02:00 | 13.17329 | -59.58046 | 5564 ft | 322 kts | 249° |
| 2026-05-07 02:00 | 13.16550 | -59.60140 | 5492 ft | 307 kts | 249° |
| 2026-05-07 02:00 | 13.15809 | -59.62138 | 5457 ft | 293 kts | 249° |
| 2026-05-07 02:01 | 13.15085 | -59.64084 | 4890 ft | 298 kts | 249° |
| 2026-05-07 02:01 | 13.14330 | -59.66110 | 4147 ft | 310 kts | 249° |
| 2026-05-07 02:01 | 13.13549 | -59.68205 | 3518 ft | 317 kts | 249° |
| 2026-05-07 02:01 | 13.12618 | -59.70225 | 3226 ft | 309 kts | 229° |
| 2026-05-07 02:02 | 13.10988 | -59.71537 | 3135 ft | 291 kts | 204° |
| 2026-05-07 02:02 | 13.09187 | -59.72365 | 3080 ft | 278 kts | 200° |
| 2026-05-07 02:02 | 13.07436 | -59.73092 | 3054 ft | 265 kts | 199° |
| 2026-05-07 02:02 | 13.05761 | -59.73767 | 3004 ft | 252 kts | 198° |
| 2026-05-07 02:03 | 13.04167 | -59.74401 | 2997 ft | 239 kts | 198° |
| 2026-05-07 02:03 | 13.02648 | -59.75002 | 2988 ft | 230 kts | 198° |
| 2026-05-07 02:03 | 13.01656 | -59.75390 | 3000 ft | 230 kts | 198° |
| 2026-05-07 02:03 | 13.00107 | -59.75645 | 2948 ft | 224 kts | 160° |
| 2026-05-07 02:04 | 12.98637 | -59.74425 | 3078 ft | 213 kts | 102° |
| 2026-05-07 02:04 | 12.98544 | -59.73407 | 3127 ft | 212 kts | 73° |
| 2026-05-07 02:04 | 12.99318 | -59.72193 | 3188 ft | 214 kts | 32° |
| 2026-05-07 02:04 | 13.00647 | -59.71480 | 3160 ft | 216 kts | 27° |
| 2026-05-07 02:05 | 13.01845 | -59.70595 | 3053 ft | 212 kts | 60° |
| 2026-05-07 02:05 | 13.02144 | -59.69163 | 3077 ft | 214 kts | 103° |
| 2026-05-07 02:05 | 13.01331 | -59.67886 | 3094 ft | 224 kts | 145° |
| 2026-05-07 02:05 | 12.99820 | -59.67487 | 3116 ft | 234 kts | 187° |
| 2026-05-07 02:06 | 12.98273 | -59.68021 | 3129 ft | 241 kts | 217° |
| 2026-05-07 02:06 | 12.97285 | -59.69374 | 3161 ft | 241 kts | 258° |
| 2026-05-07 02:06 | 12.97332 | -59.71048 | 3187 ft | 237 kts | 300° |
| 2026-05-07 02:06 | 12.98375 | -59.72279 | 3205 ft | 228 kts | 341° |
| 2026-05-07 02:07 | 12.99866 | -59.72487 | 3240 ft | 217 kts | 23° |
| 2026-05-07 02:07 | 13.02226 | -59.70704 | 3137 ft | 212 kts | 69° |
| 2026-05-07 02:07 | 13.02615 | -59.69279 | 3138 ft | 212 kts | 79° |
| 2026-05-07 02:08 | 13.02899 | -59.67791 | 3067 ft | 209 kts | 78° |
| 2026-05-07 02:08 | 13.03215 | -59.66314 | 3094 ft | 217 kts | 77° |
| 2026-05-07 02:08 | 13.03584 | -59.64787 | 3112 ft | 218 kts | 75° |
| 2026-05-07 02:08 | 13.03928 | -59.63305 | 2610 ft | 216 kts | 77° |
| 2026-05-07 02:09 | 13.04304 | -59.61803 | 2216 ft | 213 kts | 74° |
| 2026-05-07 02:09 | 13.04724 | -59.60379 | 1993 ft | 203 kts | 72° |
| 2026-05-07 02:09 | 13.05094 | -59.59023 | 1790 ft | 193 kts | 76° |
| 2026-05-07 02:09 | 13.05375 | -59.57694 | 1598 ft | 187 kts | 78° |
| 2026-05-07 02:10 | 13.05665 | -59.56408 | 1333 ft | 185 kts | 75° |
| 2026-05-07 02:10 | 13.05991 | -59.55118 | 991 ft | 187 kts | 75° |
| 2026-05-07 02:10 | 13.06334 | -59.53856 | 825 ft | 178 kts | 75° |
| 2026-05-07 02:10 | 13.06626 | -59.52632 | 584 ft | 173 kts | 76° |
| 2026-05-07 02:11 | 13.06913 | -59.51449 | 434 ft | 169 kts | 74° |
| 2026-05-07 02:11 | 13.07209 | -59.50245 | 206 ft | 178 kts | 76° |
| 2026-05-07 02:11 | 13.07483 | -59.49138 | 182 ft | 135 kts | 77° |
| 2026-05-07 02:11 | 13.07633 | -59.48520 | 180 ft | 64 kts | 76° |
| 2026-05-07 02:12 | 13.07694 | -59.48344 | 179 ft | 10 kts | 33° |
| 2026-05-07 02:12 | 13.07735 | -59.48344 | 180 ft | 4 kts | 354° |
| 2026-05-07 02:12 | 13.07773 | -59.48349 | 181 ft | 6 kts | 349° |
| 2026-05-07 02:12 | 13.07822 | -59.48361 | 183 ft | 8 kts | 345° |
| 2026-05-07 02:13 | 13.07850 | -59.48387 | 183 ft | 2 kts | 299° |
| 2026-05-07 02:13 | 13.07855 | -59.48413 | 184 ft | 1 kts | 271° |
| 2026-05-07 02:13 | 13.07851 | -59.48420 | 184 ft | 2 kts | 259° |
| 2026-05-07 02:13 | 13.07848 | -59.48441 | 184 ft | 4 kts | 259° |
| 2026-05-07 02:14 | 13.07842 | -59.48473 | 184 ft | 5 kts | 259° |
| 2026-05-07 02:14 | 13.07834 | -59.48516 | 198 ft | 7 kts | 259° |
| 2026-05-07 02:14 | 13.07820 | -59.48557 | 194 ft | 6 kts | 249° |
| 2026-05-07 02:14 | 13.07804 | -59.48604 | 184 ft | 8 kts | 251° |
| 2026-05-07 02:15 | 13.07797 | -59.48651 | 184 ft | 2 kts | 277° |
| 2026-05-07 02:15 | 13.07805 | -59.48660 | 195 ft | 1 kts | 305° |
| 2026-05-07 02:15 | 13.07822 | -59.48666 | 188 ft | 7 kts | 334° |
| 2026-05-07 02:15 | 13.07883 | -59.48684 | 197 ft | 6 kts | 345° |
| 2026-05-07 02:16 | 13.07899 | -59.48689 | 189 ft | 0 kts | 345° |